createdAt,value
2019-04-26T00:02:45.847Z,92.17
2019-04-26T00:05:18.523Z,92.46
2019-04-26T00:07:50.895Z,92.40
2019-04-26T00:10:47.922Z,92.45
2019-04-26T00:13:35.306Z,92.56
2019-04-26T00:16:16.768Z,92.70
2019-04-26T00:18:48.897Z,92.78
2019-04-26T00:21:21.115Z,92.94
2019-04-26T00:23:55.294Z,93.11
2019-04-26T00:26:27.573Z,93.36
2019-04-26T00:29:00.425Z,93.39
2019-04-26T00:31:36.150Z,93.37
2019-04-26T00:34:08.133Z,93.39
2019-04-26T00:36:41.887Z,93.44
2019-04-26T00:39:14.329Z,93.52
2019-04-26T00:41:48.163Z,93.61
2019-04-26T00:44:20.896Z,93.77
2019-04-26T00:46:56.663Z,93.99
2019-04-26T00:49:42.735Z,94.18
2019-04-26T00:52:05.756Z,94.32
2019-04-26T00:54:38.929Z,94.37
2019-04-26T00:57:14.512Z,94.42
2019-04-26T00:59:47.775Z,94.66
2019-04-26T01:02:28.708Z,94.82
2019-04-26T01:05:02.347Z,94.85
2019-04-26T01:07:34.701Z,94.94
2019-04-26T01:10:07.299Z,94.86
2019-04-26T01:12:39.334Z,94.66
2019-04-26T01:15:12.058Z,94.49
2019-04-26T01:17:44.621Z,94.25
2019-04-26T01:20:18.861Z,93.99
2019-04-26T01:23:01.560Z,93.79
2019-04-26T01:25:57.625Z,93.57
2019-04-26T01:28:42.337Z,93.35
2019-04-26T01:31:15.705Z,93.38
2019-04-26T01:33:49.276Z,93.44
2019-04-26T01:36:22.287Z,93.33
2019-04-26T01:38:58.892Z,93.13
2019-04-26T01:41:40.372Z,92.81
2019-04-26T01:44:31.441Z,92.19
2019-04-26T01:47:04.631Z,91.73
2019-04-26T01:49:37.341Z,91.35
2019-04-26T01:52:14.358Z,91.09
2019-04-26T01:54:47.639Z,90.74
2019-04-26T01:57:22.555Z,90.19
2019-04-26T02:00:01.191Z,89.65
2019-04-26T02:02:41.803Z,89.10
2019-04-26T02:05:18.546Z,88.71
2019-04-26T02:07:50.739Z,88.28
2019-04-26T02:10:25.244Z,88.17
2019-04-26T02:13:02.161Z,88.01
2019-04-26T02:15:35.399Z,87.57
2019-04-26T02:18:07.673Z,87.33
2019-04-26T02:21:28.037Z,86.94
2019-04-26T02:24:18.428Z,86.56
2019-04-26T02:26:51.648Z,86.59
2019-04-26T02:29:27.105Z,86.56
2019-04-26T02:32:03.458Z,86.51
2019-04-26T02:34:38.521Z,86.35
2019-04-26T02:37:13.939Z,86.32
2019-04-26T02:39:46.118Z,86.45
2019-04-26T02:42:34.959Z,86.81
2019-04-26T02:45:50.417Z,87.12
2019-04-26T02:48:49.894Z,87.10
2019-04-26T02:51:29.150Z,87.23
2019-04-26T02:54:23.316Z,87.46
2019-04-26T02:56:58.023Z,87.88
2019-04-26T02:59:44.520Z,88.39
2019-04-26T03:02:32.233Z,88.85
2019-04-26T03:05:05.013Z,89.18
2019-04-26T03:07:53.645Z,89.38
2019-04-26T03:10:40.600Z,89.54
2019-04-26T03:13:40.095Z,89.54
2019-04-26T03:16:35.173Z,89.57
2019-04-26T03:19:23.169Z,89.89
2019-04-26T03:22:19.729Z,90.19
2019-04-26T03:25:01.712Z,90.16
2019-04-26T03:27:48.752Z,90.41
2019-04-26T03:30:41.514Z,90.99
2019-04-26T03:33:53.346Z,91.17
2019-04-26T03:36:44.157Z,91.35
2019-04-26T03:39:41.181Z,91.43
2019-04-26T03:42:44.157Z,91.59
2019-04-26T03:45:31.009Z,91.62
2019-04-26T03:48:14.932Z,91.80
2019-04-26T03:50:56.242Z,91.92
2019-04-26T03:53:46.246Z,92.05
2019-04-26T03:56:45.534Z,92.14
2019-04-26T03:59:53.098Z,92.38
2019-04-26T04:03:18.357Z,92.56
2019-04-26T04:05:54.261Z,92.56
2019-04-26T04:08:33.471Z,92.68
2019-04-26T04:11:09.294Z,92.66
2019-04-26T04:14:09.165Z,92.68
2019-04-26T04:17:22.498Z,92.83
2019-04-26T04:20:38.305Z,92.87
2019-04-26T04:23:25.400Z,92.67
2019-04-26T04:26:01.868Z,92.63
2019-04-26T04:29:05.066Z,92.72
2019-04-26T04:31:44.332Z,92.86
2019-04-26T04:34:29.177Z,92.94
2019-04-26T04:37:05.740Z,93.20
2019-04-26T04:40:13.815Z,93.68
2019-04-26T04:43:36.856Z,93.97
2019-04-26T04:47:31.055Z,94.22
2019-04-26T04:50:35.345Z,94.26
2019-04-26T04:53:30.844Z,94.51
2019-04-26T04:56:47.836Z,94.55
2019-04-26T04:59:27.314Z,94.73
2019-04-26T05:02:44.833Z,95.34
2019-04-26T05:06:07.424Z,95.61
2019-04-26T05:08:49.690Z,95.87
2019-04-26T05:11:26.530Z,96.06
2019-04-26T05:14:09.583Z,96.23
2019-04-26T05:17:17.333Z,96.29
2019-04-26T05:20:16.954Z,96.30
2019-04-26T05:23:30.060Z,96.09
2019-04-26T05:26:46.216Z,95.92
2019-04-26T05:29:46.602Z,95.96
2019-04-26T05:32:48.705Z,95.99
2019-04-26T05:35:51.607Z,96.13
2019-04-26T05:39:03.667Z,96.22
2019-04-26T05:42:15.381Z,96.35
2019-04-26T05:46:05.832Z,96.43
2019-04-26T05:49:15.262Z,96.60
2019-04-26T05:52:30.162Z,96.96
2019-04-26T05:55:36.402Z,97.18
2019-04-26T05:58:44.435Z,97.42
2019-04-26T06:02:02.589Z,97.51
2019-04-26T06:04:48.502Z,97.16
2019-04-26T06:07:56.636Z,96.61
2019-04-26T06:10:48.625Z,95.81
2019-04-26T06:14:12.129Z,94.40
2019-04-26T06:17:24.545Z,93.03
2019-04-26T06:20:26.960Z,90.70
2019-04-26T06:23:15.239Z,87.98
2019-04-26T06:26:30.996Z,84.76
2019-04-26T06:29:12.468Z,81.95
2019-04-26T06:31:50.624Z,79.46
2019-04-26T06:34:40.837Z,76.98
2019-04-26T06:37:37.079Z,75.66
2019-04-26T06:40:17.640Z,74.80
2019-04-26T06:43:18.995Z,75.03
2019-04-26T06:46:47.576Z,76.41
2019-04-26T06:49:46.342Z,77.86
2019-04-26T06:52:22.445Z,79.29
2019-04-26T06:55:18.106Z,80.26
2019-04-26T06:58:36.852Z,80.85
2019-04-26T07:01:40.389Z,81.02
2019-04-26T07:05:12.222Z,81.08
2019-04-26T07:08:09.215Z,80.96
2019-04-26T07:10:56.788Z,80.59
2019-04-26T07:13:49.231Z,80.73
2019-04-26T07:16:48.738Z,81.10
2019-04-26T07:20:06.069Z,80.67
2019-04-26T07:23:36.357Z,79.72
2019-04-26T07:26:55.498Z,77.56
2019-04-26T07:30:09.844Z,75.72
2019-04-26T07:33:15.346Z,75.42
2019-04-26T07:36:12.022Z,76.10
2019-04-26T07:39:15.715Z,76.43
2019-04-26T07:42:24.387Z,77.11
2019-04-26T07:45:48.759Z,77.67
2019-04-26T07:48:55.148Z,76.68
2019-04-26T07:52:35.190Z,74.30
2019-04-26T07:55:32.383Z,71.42
2019-04-26T07:58:50.010Z,67.55
2019-04-26T08:02:06.661Z,65.80
2019-04-26T08:04:45.162Z,64.13
2019-04-26T08:07:24.636Z,62.41
2019-04-26T08:10:14.642Z,59.55
2019-04-26T08:12:55.916Z,53.10
2019-04-26T08:15:54.603Z,43.27
2019-04-26T08:18:56.915Z,36.77
2019-04-26T08:21:37.581Z,32.24
2019-04-26T08:24:24.359Z,27.97
2019-04-26T08:27:23.631Z,25.28
2019-04-26T08:30:03.478Z,23.35
2019-04-26T08:32:43.341Z,21.94
2019-04-26T08:35:29.706Z,21.04
2019-04-26T08:38:15.963Z,19.59
2019-04-26T08:40:43.752Z,18.44
2019-04-26T08:43:35.080Z,18.30
2019-04-26T08:46:32.300Z,20.17
2019-04-26T08:49:31.515Z,23.84
2019-04-26T08:52:14.718Z,22.53
2019-04-26T08:54:55.925Z,23.56
2019-04-26T08:57:33.524Z,26.55
2019-04-26T09:00:15.488Z,28.07
2019-04-26T09:03:19.866Z,30.96
2019-04-26T09:06:03.682Z,30.46
2019-04-26T09:08:43.225Z,29.62
2019-04-26T09:11:25.652Z,29.42
2019-04-26T09:13:52.682Z,30.06
2019-04-26T09:16:25.161Z,28.28
2019-04-26T09:18:59.740Z,23.11
2019-04-26T09:21:51.811Z,21.22
2019-04-26T09:24:48.463Z,20.18
2019-04-26T09:27:27.715Z,18.87
2019-04-26T09:30:18.498Z,19.90
2019-04-26T09:33:09.858Z,23.33
2019-04-26T09:35:42.003Z,25.55
2019-04-26T09:38:14.033Z,28.85
2019-04-26T09:40:46.108Z,29.22
2019-04-26T09:43:26.907Z,33.66
2019-04-26T09:46:13.172Z,36.00
2019-04-26T09:49:03.099Z,37.51
2019-04-26T09:51:39.077Z,36.43
2019-04-26T09:54:11.017Z,31.99
2019-04-26T09:56:43.040Z,27.63
2019-04-26T09:59:15.053Z,24.19
2019-04-26T10:01:47.174Z,23.38
2019-04-26T10:04:19.141Z,19.79
2019-04-26T10:06:52.067Z,19.00
2019-04-26T10:09:26.261Z,19.92
2019-04-26T10:12:04.187Z,23.65
2019-04-26T10:14:56.229Z,26.98
2019-04-26T10:17:31.789Z,30.30
2019-04-26T10:20:04.018Z,32.82
2019-04-26T10:22:37.895Z,30.50
2019-04-26T10:25:16.498Z,27.32
2019-04-26T10:27:44.793Z,23.84
2019-04-26T10:30:18.577Z,22.55
2019-04-26T10:32:52.212Z,23.77
2019-04-26T10:35:24.251Z,26.24
2019-04-26T10:37:56.295Z,28.61
2019-04-26T10:40:35.363Z,30.35
2019-04-26T10:43:02.642Z,33.76
2019-04-26T10:45:35.165Z,36.38
2019-04-26T10:48:13.548Z,37.42
2019-04-26T10:50:44.488Z,39.01
2019-04-26T10:53:33.305Z,40.00
2019-04-26T10:56:25.245Z,35.45
2019-04-26T10:59:15.165Z,30.97
2019-04-26T11:01:47.436Z,26.63
2019-04-26T11:04:19.662Z,21.93
2019-04-26T11:06:51.676Z,21.62
2019-04-26T11:09:24.920Z,22.23
2019-04-26T11:11:57.095Z,22.35
2019-04-26T11:14:29.029Z,25.15
2019-04-26T11:17:01.019Z,29.50
2019-04-26T11:19:35.503Z,30.71
2019-04-26T11:22:06.847Z,32.92
2019-04-26T11:24:38.941Z,34.04
2019-04-26T11:27:11.359Z,30.91
2019-04-26T11:29:53.308Z,31.35
2019-04-26T11:32:17.071Z,27.88
2019-04-26T11:34:54.422Z,23.45
2019-04-26T11:37:26.506Z,24.50
2019-04-26T11:40:05.650Z,26.04
2019-04-26T11:42:38.205Z,24.09
2019-04-26T11:45:14.805Z,22.59
2019-04-26T11:47:55.871Z,21.22
2019-04-26T11:50:20.932Z,21.22
2019-04-26T11:52:54.549Z,22.21
2019-04-26T11:55:29.710Z,27.75
2019-04-26T11:58:01.457Z,30.82
2019-04-26T12:00:38.751Z,31.94
2019-04-26T12:03:12.013Z,33.76
2019-04-26T12:06:12.123Z,34.99
2019-04-26T12:09:02.904Z,33.65
2019-04-26T12:11:48.954Z,34.90
2019-04-26T12:14:20.014Z,35.18
2019-04-26T12:16:49.283Z,36.27
2019-04-26T12:19:19.894Z,38.34
2019-04-26T12:21:52.630Z,39.16
2019-04-26T12:24:25.331Z,40.24
2019-04-26T12:26:58.341Z,40.83
2019-04-26T12:29:30.429Z,41.33
2019-04-26T12:32:04.475Z,41.86
2019-04-26T12:34:36.434Z,41.96
2019-04-26T12:37:08.405Z,41.30
2019-04-26T12:39:43.380Z,41.20
2019-04-26T12:42:16.010Z,41.27
2019-04-26T12:44:56.080Z,41.14
2019-04-26T12:47:49.264Z,40.47
2019-04-26T12:50:21.387Z,40.35
2019-04-26T12:52:55.773Z,40.81
2019-04-26T12:55:27.657Z,40.30
2019-04-26T12:58:00.224Z,38.17
2019-04-26T13:00:37.150Z,37.55
2019-04-26T13:03:19.733Z,37.83
2019-04-26T13:05:43.423Z,39.20
2019-04-26T13:08:17.092Z,38.27
2019-04-26T13:11:15.062Z,38.09
2019-04-26T13:13:50.801Z,37.56
2019-04-26T13:16:45.295Z,38.67
2019-04-26T13:19:19.857Z,39.70
2019-04-26T13:21:53.548Z,40.48
2019-04-26T13:24:25.491Z,40.10
2019-04-26T13:26:57.992Z,40.86
2019-04-26T13:29:31.156Z,40.66
2019-04-26T13:32:03.860Z,40.58
2019-04-26T13:34:39.032Z,40.53
2019-04-26T13:37:12.048Z,41.36
2019-04-26T13:39:45.287Z,41.29
2019-04-26T13:42:19.003Z,41.69
2019-04-26T13:45:07.960Z,41.52
2019-04-26T13:47:59.028Z,40.73
2019-04-26T13:50:43.639Z,41.02
2019-04-26T13:53:16.655Z,40.23
2019-04-26T13:55:50.149Z,39.73
2019-04-26T13:58:25.480Z,38.56
2019-04-26T14:00:57.040Z,38.04
2019-04-26T14:03:31.632Z,38.08
2019-04-26T14:06:02.915Z,38.94
2019-04-26T14:08:34.904Z,39.25
2019-04-26T14:11:07.476Z,39.14
2019-04-26T14:13:39.702Z,39.09
2019-04-26T14:16:13.495Z,39.92
2019-04-26T14:18:47.508Z,39.42
2019-04-26T14:21:19.697Z,39.85
2019-04-26T14:24:13.221Z,39.02
2019-04-26T14:26:48.332Z,40.06
2019-04-26T14:29:20.284Z,40.96
2019-04-26T14:31:53.154Z,42.01
2019-04-26T14:34:25.286Z,41.89
2019-04-26T14:37:06.385Z,42.35
2019-04-26T14:39:49.262Z,43.04
2019-04-26T14:42:04.930Z,43.87
2019-04-26T14:44:48.893Z,43.92
2019-04-26T14:47:14.989Z,43.16
2019-04-26T14:49:46.862Z,41.47
2019-04-26T14:52:18.839Z,40.96
2019-04-26T14:54:50.816Z,40.75
2019-04-26T14:57:30.875Z,41.58
2019-04-26T14:59:58.974Z,40.50
2019-04-26T15:02:49.859Z,40.03
2019-04-26T15:05:47.376Z,40.07
2019-04-26T15:08:19.403Z,39.88
2019-04-26T15:10:59.783Z,39.57
2019-04-26T15:13:29.215Z,38.50
2019-04-26T15:16:10.034Z,40.09
2019-04-26T15:18:37.409Z,40.41
2019-04-26T15:21:09.365Z,39.84
2019-04-26T15:23:42.729Z,40.07
2019-04-26T15:26:18.521Z,40.54
2019-04-26T15:28:51.676Z,41.09
2019-04-26T15:31:27.547Z,39.43
2019-04-26T15:33:59.272Z,39.59
2019-04-26T15:36:31.970Z,38.30
2019-04-26T15:39:06.201Z,39.03
2019-04-26T15:41:47.061Z,38.70
2019-04-26T15:44:43.179Z,38.62
2019-04-26T15:47:43.265Z,38.68
2019-04-26T15:50:32.008Z,37.89
2019-04-26T15:53:06.635Z,37.24
2019-04-26T15:55:40.284Z,37.59
2019-04-26T15:58:11.487Z,36.90
2019-04-26T16:00:43.846Z,37.68
2019-04-26T16:03:18.031Z,36.77
2019-04-26T16:05:50.656Z,37.60
2019-04-26T16:10:54.585Z,37.24
2019-04-26T16:13:27.178Z,39.20
2019-04-26T16:15:59.217Z,38.84
2019-04-26T16:18:32.376Z,39.58
2019-04-26T16:21:04.669Z,39.96
2019-04-26T16:23:41.141Z,40.17
2019-04-26T16:26:12.928Z,39.83
2019-04-26T16:29:18.270Z,39.47
2019-04-26T16:32:02.900Z,39.04
2019-04-26T16:34:35.573Z,39.93
2019-04-26T16:37:09.904Z,39.52
2019-04-26T16:39:44.588Z,39.25
2019-04-26T16:42:15.908Z,39.41
2019-04-26T16:44:50.104Z,39.44
2019-04-26T16:47:23.369Z,39.99
2019-04-26T16:49:55.798Z,40.37
2019-04-26T16:52:29.229Z,41.63
2019-04-26T16:55:15.329Z,41.01
2019-04-26T16:57:43.883Z,41.68
2019-04-26T17:00:22.672Z,41.16
2019-04-26T17:02:49.741Z,41.43
2019-04-26T17:05:44.027Z,41.19
2019-04-26T17:07:58.837Z,41.23
2019-04-26T17:10:32.911Z,40.72
2019-04-26T17:13:05.182Z,42.23
2019-04-26T17:15:37.223Z,42.40
2019-04-26T17:18:12.776Z,42.08
2019-04-26T17:20:48.237Z,43.38
2019-04-26T17:23:45.066Z,43.26
2019-04-26T17:26:29.214Z,42.54
2019-04-26T17:29:02.382Z,43.06
2019-04-26T17:31:34.728Z,43.01
2019-04-26T17:34:07.144Z,44.02
2019-04-26T17:36:40.217Z,43.95
2019-04-26T17:39:16.795Z,44.30
2019-04-26T17:41:50.560Z,44.69
2019-04-26T17:44:28.188Z,44.93
2019-04-26T17:47:02.052Z,44.02
2019-04-26T17:49:46.021Z,44.17
2019-04-26T17:52:18.144Z,44.73
2019-04-26T17:54:52.048Z,45.01
2019-04-26T17:57:33.501Z,45.42
2019-04-26T18:00:07.131Z,45.64
2019-04-26T18:02:41.975Z,46.14
2019-04-26T18:05:10.883Z,46.63
2019-04-26T18:07:50.576Z,47.30
2019-04-26T18:10:18.128Z,47.71
2019-04-26T18:12:50.781Z,47.96
2019-04-26T18:15:25.553Z,47.66
2019-04-26T18:18:29.510Z,47.63
2019-04-26T18:21:23.354Z,47.82
2019-04-26T18:23:57.263Z,48.75
2019-04-26T18:26:29.274Z,49.58
2019-04-26T18:29:03.936Z,50.40
2019-04-26T18:31:36.460Z,50.73
2019-04-26T18:34:12.672Z,50.98
2019-04-26T18:36:44.790Z,51.26
2019-04-26T18:39:18.112Z,51.98
2019-04-26T18:41:50.830Z,52.34
2019-04-26T18:44:36.286Z,52.72
2019-04-26T18:47:14.652Z,53.19
2019-04-26T18:49:47.089Z,54.28
2019-04-26T18:52:23.287Z,54.83
2019-04-26T18:55:05.798Z,55.57
2019-04-26T18:57:38.171Z,56.05
2019-04-26T19:00:14.479Z,56.45
2019-04-26T19:02:48.413Z,56.92
2019-04-26T19:05:27.214Z,57.61
2019-04-26T19:07:57.615Z,58.20
2019-04-26T19:10:34.211Z,58.37
2019-04-26T19:13:22.204Z,58.18
2019-04-26T19:16:18.261Z,58.46
2019-04-26T19:19:04.910Z,58.69
2019-04-26T19:21:44.193Z,58.94
2019-04-26T19:24:19.798Z,59.40
2019-04-26T19:26:51.447Z,59.76
2019-04-26T19:29:32.681Z,59.80
2019-04-26T19:32:01.560Z,60.13
2019-04-26T19:34:32.772Z,60.60
2019-04-26T19:37:06.742Z,60.91
2019-04-26T19:39:39.177Z,60.92
2019-04-26T19:42:12.431Z,61.52
2019-04-26T19:44:45.327Z,61.98
2019-04-26T19:47:35.471Z,62.24
2019-04-26T19:50:50.496Z,62.82
2019-04-26T19:53:47.336Z,63.56
2019-04-26T19:56:24.522Z,63.40
2019-04-26T19:58:57.739Z,63.89
2019-04-26T20:01:32.846Z,64.10
2019-04-26T20:04:13.509Z,64.29
2019-04-26T20:06:48.410Z,65.01
2019-04-26T20:09:26.173Z,66.19
2019-04-26T20:11:58.006Z,66.86
2019-04-26T20:14:44.769Z,67.96
2019-04-26T20:17:05.729Z,66.83
2019-04-26T20:19:39.082Z,66.33
2019-04-26T20:22:11.660Z,66.77
2019-04-26T20:24:43.800Z,66.66
2019-04-26T20:27:20.585Z,66.57
2019-04-26T20:29:49.780Z,66.97
2019-04-26T20:32:32.449Z,66.64
2019-04-26T20:35:13.224Z,67.55
2019-04-26T20:37:45.961Z,68.07
2019-04-26T20:40:24.713Z,68.67
2019-04-26T20:43:02.066Z,69.16
2019-04-26T20:45:38.800Z,69.66
2019-04-26T20:48:02.967Z,69.78
2019-04-26T20:50:36.806Z,70.49
2019-04-26T20:53:11.997Z,71.51
2019-04-26T20:55:43.711Z,71.97
2019-04-26T20:58:16.035Z,72.44
2019-04-26T21:00:54.488Z,72.64
2019-04-26T21:03:38.298Z,72.84
2019-04-26T21:17:13.402Z,72.52
2019-04-26T21:19:49.772Z,72.16
2019-04-26T21:22:25.476Z,71.71
2019-04-26T21:24:58.536Z,71.23
2019-04-26T21:28:08.070Z,71.82
2019-04-26T21:31:07.535Z,72.60
2019-04-26T21:33:42.997Z,73.12
2019-04-26T21:36:49.483Z,73.27
2019-04-26T21:39:35.284Z,73.42
2019-04-26T21:42:10.975Z,73.53
2019-04-26T21:44:44.666Z,73.44
2019-04-26T21:47:16.940Z,73.54
2019-04-26T21:49:54.114Z,73.63
2019-04-26T21:52:29.121Z,73.88
2019-04-26T21:55:01.736Z,73.90
2019-04-26T21:57:35.197Z,74.76
2019-04-26T22:00:20.905Z,75.45
2019-04-26T22:02:57.437Z,76.33
2019-04-26T22:05:35.084Z,76.76
2019-04-26T22:08:06.911Z,76.91
2019-04-26T22:10:44.656Z,77.57
2019-04-26T22:13:28.264Z,78.31
2019-04-26T22:16:16.267Z,78.97
2019-04-26T22:19:03.844Z,79.75
2019-04-26T22:21:53.229Z,80.54
2019-04-26T22:24:30.157Z,81.09
2019-04-26T22:27:04.031Z,81.68
2019-04-26T22:29:36.024Z,81.86
2019-04-26T22:32:11.537Z,82.18
2019-04-26T22:34:46.195Z,81.82
2019-04-26T22:37:29.076Z,81.76
2019-04-26T22:39:51.379Z,81.90
2019-04-26T22:42:24.030Z,82.00
2019-04-26T22:45:10.551Z,82.31
2019-04-26T22:47:47.956Z,82.31
2019-04-26T22:50:22.259Z,82.44
2019-04-26T22:52:54.899Z,82.75
2019-04-26T22:55:27.620Z,83.25
2019-04-26T22:57:59.876Z,83.57
2019-04-26T23:00:38.288Z,83.69
2019-04-26T23:03:10.738Z,83.81
2019-04-26T23:05:44.808Z,83.82
2019-04-26T23:08:16.833Z,83.88
2019-04-26T23:10:50.740Z,84.22
2019-04-26T23:13:37.839Z,84.57
2019-04-26T23:19:43.608Z,84.76
2019-04-26T23:22:15.921Z,84.70
2019-04-26T23:24:49.146Z,84.89
2019-04-26T23:27:23.627Z,85.59
2019-04-26T23:29:58.309Z,86.01
2019-04-26T23:32:30.752Z,86.35
2019-04-26T23:35:05.794Z,86.41
2019-04-26T23:37:36.546Z,86.42
2019-04-26T23:40:09.473Z,86.24
2019-04-26T23:42:43.632Z,86.10
2019-04-26T23:45:18.358Z,86.11
2019-04-26T23:47:50.483Z,86.00
2019-04-26T23:50:25.633Z,86.08
2019-04-26T23:52:56.271Z,86.51
2019-04-26T23:55:28.647Z,86.53
2019-04-26T23:58:06.461Z,86.59
